createdAt,value
2022-12-20T00:01:31.333Z,52.97
2022-12-20T00:04:02.437Z,50.22
2022-12-20T00:06:30.428Z,47.80
2022-12-20T00:09:02.123Z,47.42
2022-12-20T00:11:30.059Z,46.08
2022-12-20T00:13:58.427Z,47.10
2022-12-20T00:16:28.276Z,48.38
2022-12-20T00:19:02.574Z,46.45
2022-12-20T00:21:32.082Z,48.63
2022-12-20T00:24:02.853Z,51.47
2022-12-20T00:26:32.717Z,47.25
2022-12-20T00:29:00.831Z,50.03
2022-12-20T00:31:30.131Z,46.38
2022-12-20T00:33:59.295Z,50.10
2022-12-20T00:36:29.558Z,46.85
2022-12-20T00:38:58.279Z,48.35
2022-12-20T00:41:28.002Z,46.22
2022-12-20T00:43:55.816Z,48.13
2022-12-20T00:46:24.841Z,45.65
2022-12-20T00:48:53.674Z,45.65
2022-12-20T00:51:24.936Z,45.25
2022-12-20T00:53:52.703Z,46.67
2022-12-20T00:56:20.469Z,49.03
2022-12-20T00:58:47.885Z,44.10
2022-12-20T01:01:26.201Z,46.03
2022-12-20T01:03:54.521Z,46.65
2022-12-20T01:06:24.213Z,47.28
2022-12-20T01:08:53.159Z,45.05
2022-12-20T01:11:23.163Z,47.20
2022-12-20T01:13:53.096Z,49.92
2022-12-20T01:16:26.626Z,51.40
2022-12-20T01:18:55.530Z,45.63
2022-12-20T01:21:26.055Z,49.55
2022-12-20T01:23:54.382Z,50.38
2022-12-20T01:26:24.818Z,49.13
2022-12-20T01:28:54.987Z,46.65
2022-12-20T01:31:23.442Z,46.38
2022-12-20T01:33:52.454Z,45.55
2022-12-20T01:36:25.416Z,47.05
2022-12-20T01:39:05.210Z,45.75
2022-12-20T01:41:33.795Z,46.20
2022-12-20T01:44:06.830Z,45.92
2022-12-20T01:46:39.726Z,46.85
2022-12-20T01:49:20.329Z,47.10
2022-12-20T01:51:55.952Z,47.03
2022-12-20T01:54:36.599Z,49.15
2022-12-20T01:57:09.076Z,46.63
2022-12-20T01:59:39.890Z,41.20
2022-12-20T02:02:11.144Z,44.83
2022-12-20T02:04:39.165Z,48.53
2022-12-20T02:07:08.017Z,42.45
2022-12-20T02:09:37.858Z,48.22
2022-12-20T02:12:17.953Z,48.75
2022-12-20T02:15:10.223Z,46.63
2022-12-20T02:17:40.272Z,48.42
2022-12-20T02:20:16.730Z,41.45
2022-12-20T02:23:06.028Z,45.20
2022-12-20T02:25:46.562Z,39.53
2022-12-20T02:28:32.754Z,39.08
2022-12-20T02:31:05.429Z,39.40
2022-12-20T02:33:32.834Z,40.08
2022-12-20T02:36:00.498Z,39.28
2022-12-20T02:38:32.689Z,42.45
2022-12-20T02:41:30.410Z,42.78
2022-12-20T02:44:23.710Z,40.67
2022-12-20T02:46:52.190Z,36.35
2022-12-20T02:49:26.300Z,41.95
2022-12-20T02:51:57.403Z,45.00
2022-12-20T02:54:25.326Z,40.53
2022-12-20T02:57:10.177Z,39.88
2022-12-20T02:59:45.685Z,47.72
2022-12-20T03:02:13.332Z,45.28
2022-12-20T03:04:42.053Z,44.25
2022-12-20T03:07:13.559Z,45.80
2022-12-20T03:09:43.209Z,41.03
2022-12-20T03:12:14.382Z,42.75
2022-12-20T03:14:42.311Z,44.78
2022-12-20T03:17:11.491Z,50.67
2022-12-20T03:19:39.141Z,48.72
2022-12-20T03:22:06.866Z,45.22
2022-12-20T03:24:34.542Z,50.13
2022-12-20T03:27:06.586Z,46.40
2022-12-20T03:29:34.027Z,51.53
2022-12-20T03:32:01.511Z,48.45
2022-12-20T03:34:29.993Z,46.33
2022-12-20T03:36:57.457Z,47.67
2022-12-20T03:39:24.949Z,45.53
2022-12-20T03:41:54.396Z,47.80
2022-12-20T03:44:21.989Z,50.92
2022-12-20T03:46:50.295Z,52.03
2022-12-20T03:49:18.715Z,46.50
2022-12-20T03:51:50.161Z,51.05
2022-12-20T03:54:19.085Z,45.08
2022-12-20T03:57:09.859Z,46.45
2022-12-20T03:59:37.457Z,46.70
2022-12-20T04:02:06.578Z,51.80
2022-12-20T04:04:37.553Z,50.50
2022-12-20T04:07:05.035Z,53.72
2022-12-20T04:09:33.125Z,47.15
2022-12-20T04:12:06.552Z,45.58
2022-12-20T04:14:37.400Z,40.08
2022-12-20T04:17:05.494Z,39.92
2022-12-20T04:19:33.955Z,37.13
2022-12-20T04:22:05.540Z,36.00
2022-12-20T04:24:49.216Z,34.00
2022-12-20T04:27:25.353Z,36.38
2022-12-20T04:29:54.530Z,38.33
2022-12-20T04:32:22.977Z,39.67
2022-12-20T04:34:50.725Z,35.20
2022-12-20T04:37:18.829Z,33.72
2022-12-20T04:39:51.147Z,31.00
2022-12-20T04:42:22.176Z,34.88
2022-12-20T04:44:51.248Z,30.92
2022-12-20T04:47:24.203Z,34.45
2022-12-20T04:49:53.231Z,32.40
2022-12-20T04:52:45.536Z,28.33
2022-12-20T04:55:16.309Z,30.45
2022-12-20T04:57:44.123Z,30.10
2022-12-20T05:00:17.785Z,30.75
2022-12-20T05:02:51.707Z,30.40
2022-12-20T05:05:21.395Z,30.38
2022-12-20T05:07:53.561Z,30.20
2022-12-20T05:10:21.498Z,28.17
2022-12-20T05:12:50.464Z,23.40
2022-12-20T05:15:40.199Z,28.88
2022-12-20T05:18:07.622Z,29.65
2022-12-20T05:20:45.655Z,30.27
2022-12-20T05:23:31.675Z,30.73
2022-12-20T05:26:18.676Z,34.22
2022-12-20T05:28:47.550Z,36.38
2022-12-20T05:31:15.423Z,36.50
2022-12-20T05:33:43.989Z,36.17
2022-12-20T05:36:13.180Z,36.30
2022-12-20T05:38:41.209Z,33.88
2022-12-20T05:41:14.307Z,36.47
2022-12-20T05:43:42.761Z,31.77
2022-12-20T05:46:11.570Z,34.65
2022-12-20T05:48:51.058Z,38.72
2022-12-20T05:51:18.494Z,40.55
2022-12-20T05:54:01.918Z,43.60
2022-12-20T05:56:54.358Z,41.90
2022-12-20T05:59:27.322Z,40.92
2022-12-20T06:01:56.576Z,39.83
2022-12-20T06:04:25.102Z,41.47
2022-12-20T06:06:55.968Z,45.28
2022-12-20T06:09:23.956Z,50.22
2022-12-20T06:12:04.270Z,47.65
2022-12-20T06:14:33.918Z,48.65
2022-12-20T06:17:02.482Z,47.55
2022-12-20T06:19:31.356Z,45.83
2022-12-20T06:22:00.277Z,49.25
2022-12-20T06:24:44.354Z,44.88
2022-12-20T06:27:15.611Z,51.42
2022-12-20T06:29:49.465Z,44.03
2022-12-20T06:32:17.582Z,51.40
2022-12-20T06:34:45.025Z,50.53
2022-12-20T06:37:12.766Z,48.45
2022-12-20T06:39:40.525Z,52.70
2022-12-20T06:42:09.791Z,47.85
2022-12-20T06:44:39.806Z,56.13
2022-12-20T06:47:07.815Z,58.50
2022-12-20T06:49:35.239Z,51.53
2022-12-20T06:52:08.093Z,52.42
2022-12-20T06:54:50.731Z,51.92
2022-12-20T06:57:20.100Z,54.30
2022-12-20T06:59:48.810Z,51.63
2022-12-20T07:02:16.518Z,61.70
2022-12-20T07:04:44.217Z,55.83
2022-12-20T07:07:13.365Z,60.20
2022-12-20T07:09:41.578Z,57.70
2022-12-20T07:12:10.162Z,67.82
2022-12-20T07:14:37.583Z,66.50
2022-12-20T07:17:07.637Z,63.10
2022-12-20T07:19:36.548Z,72.15
2022-12-20T07:22:05.736Z,72.95
2022-12-20T07:24:34.301Z,76.70
2022-12-20T07:27:02.133Z,82.25
2022-12-20T07:29:29.545Z,92.05
2022-12-20T07:32:00.232Z,96.07
2022-12-20T07:34:27.727Z,90.13
2022-12-20T07:36:55.169Z,100.55
2022-12-20T07:39:22.681Z,98.28
2022-12-20T07:41:53.821Z,94.55
2022-12-20T07:44:23.319Z,96.35
2022-12-20T07:46:50.829Z,94.65
2022-12-20T07:49:20.340Z,104.07
2022-12-20T07:51:53.232Z,114.63
2022-12-20T07:54:24.986Z,101.65
2022-12-20T07:56:56.089Z,105.22
2022-12-20T07:59:31.585Z,97.22
2022-12-20T08:02:04.375Z,92.43
2022-12-20T08:04:34.236Z,95.20
2022-12-20T08:07:04.876Z,83.93
2022-12-20T08:09:36.808Z,88.72
2022-12-20T08:14:32.046Z,76.93
2022-12-20T08:16:59.531Z,85.53
2022-12-20T08:19:32.472Z,83.97
2022-12-20T08:22:00.400Z,82.88
2022-12-20T08:24:28.019Z,89.15
2022-12-20T08:26:55.490Z,88.57
2022-12-20T08:29:23.276Z,87.18
2022-12-20T08:31:51.051Z,87.18
2022-12-20T08:34:19.081Z,100.43
2022-12-20T08:36:46.555Z,91.20
2022-12-20T08:39:14.050Z,93.93
2022-12-20T08:41:41.349Z,98.00
2022-12-20T08:44:10.324Z,88.95
2022-12-20T08:46:56.524Z,91.53
2022-12-20T08:49:24.004Z,94.97
2022-12-20T08:51:52.449Z,88.90
2022-12-20T08:54:19.982Z,86.70
2022-12-20T08:56:47.740Z,86.32
2022-12-20T08:59:15.606Z,83.07
2022-12-20T09:01:42.997Z,85.43
2022-12-20T09:04:11.864Z,81.93
2022-12-20T09:06:39.384Z,87.28
2022-12-20T09:09:07.355Z,89.50
2022-12-20T09:11:34.848Z,86.03
2022-12-20T09:14:02.322Z,85.28
2022-12-20T09:16:32.386Z,89.32
2022-12-20T09:19:05.482Z,83.18
2022-12-20T09:21:34.898Z,84.10
2022-12-20T09:24:02.492Z,90.22
2022-12-20T09:26:30.878Z,89.18
2022-12-20T09:29:05.394Z,91.85
2022-12-20T09:31:32.933Z,88.63
2022-12-20T09:34:01.015Z,86.50
2022-12-20T09:36:30.011Z,75.15
2022-12-20T09:38:57.849Z,81.45
2022-12-20T09:41:27.926Z,80.88
2022-12-20T09:43:56.136Z,86.30
2022-12-20T09:46:25.645Z,89.88
2022-12-20T09:48:56.579Z,86.18
2022-12-20T09:51:55.140Z,91.13
2022-12-20T09:54:22.545Z,87.00
2022-12-20T09:57:19.144Z,85.90
2022-12-20T09:59:49.871Z,91.15
2022-12-20T10:05:16.941Z,84.30
2022-12-20T10:08:07.024Z,88.32
2022-12-20T10:11:11.504Z,83.13
2022-12-20T10:14:00.227Z,89.65
2022-12-20T10:16:47.051Z,96.30
2022-12-20T10:19:26.620Z,91.50
2022-12-20T10:22:14.316Z,89.18
2022-12-20T10:24:48.234Z,87.20
2022-12-20T10:27:18.763Z,88.07
2022-12-20T10:29:49.445Z,89.90
2022-12-20T10:32:22.143Z,84.22
2022-12-20T10:37:19.487Z,86.32
2022-12-20T10:39:51.933Z,85.20
2022-12-20T10:42:40.707Z,80.70
2022-12-20T10:45:38.718Z,87.57
2022-12-20T10:48:24.257Z,87.35
2022-12-20T10:51:16.778Z,88.45
2022-12-20T10:54:02.566Z,86.75
2022-12-20T10:56:32.588Z,82.75
2022-12-20T10:59:22.749Z,74.15
2022-12-20T11:01:51.051Z,72.05
2022-12-20T11:04:21.813Z,80.30
2022-12-20T11:06:49.319Z,72.10
2022-12-20T11:09:19.689Z,72.10
2022-12-20T11:12:17.973Z,74.25
2022-12-20T11:14:47.437Z,76.65
2022-12-20T11:17:14.792Z,73.93
2022-12-20T11:19:56.603Z,72.97
2022-12-20T11:22:44.987Z,78.25
2022-12-20T11:25:15.085Z,74.03
2022-12-20T11:28:19.484Z,79.20
2022-12-20T11:31:00.443Z,70.78
2022-12-20T11:33:55.971Z,76.87
2022-12-20T11:36:38.345Z,78.70
2022-12-20T11:39:17.978Z,75.53
2022-12-20T11:41:55.482Z,77.32
2022-12-20T11:45:03.304Z,68.35
2022-12-20T11:47:53.231Z,76.97
2022-12-20T11:50:50.860Z,75.05
2022-12-20T11:53:25.252Z,59.22
2022-12-20T11:55:58.339Z,65.75
2022-12-20T11:58:35.536Z,75.60
2022-12-20T12:01:13.942Z,75.45
2022-12-20T12:03:50.749Z,78.03
2022-12-20T12:06:25.709Z,87.88
2022-12-20T12:09:11.537Z,87.10
2022-12-20T12:12:06.680Z,85.97
2022-12-20T12:14:43.679Z,75.63
2022-12-20T12:17:24.987Z,78.97
2022-12-20T12:20:01.552Z,69.30
2022-12-20T12:22:35.554Z,71.40
2022-12-20T12:25:09.237Z,64.65
2022-12-20T12:27:36.588Z,60.42
2022-12-20T12:30:07.179Z,61.53
2022-12-20T12:32:46.371Z,66.10
2022-12-20T12:35:43.090Z,64.22
2022-12-20T12:39:02.372Z,73.13
2022-12-20T12:41:36.192Z,61.97
2022-12-20T12:44:18.762Z,68.78
2022-12-20T12:46:55.340Z,65.35
2022-12-20T12:49:28.135Z,72.05
2022-12-20T12:51:59.175Z,75.97
2022-12-20T12:54:30.552Z,88.90
2022-12-20T12:57:14.832Z,80.03
2022-12-20T12:59:48.440Z,92.57
2022-12-20T13:02:16.537Z,104.53
2022-12-20T13:05:06.444Z,100.22
2022-12-20T13:07:35.190Z,107.60
2022-12-20T13:10:25.687Z,108.43
2022-12-20T13:12:58.472Z,107.20
2022-12-20T13:15:25.789Z,101.72
2022-12-20T13:17:53.186Z,89.28
2022-12-20T13:20:25.155Z,102.90
2022-12-20T13:25:44.516Z,104.03
2022-12-20T13:28:24.536Z,103.05
2022-12-20T13:31:04.905Z,103.35
2022-12-20T13:33:45.851Z,92.38
2022-12-20T13:36:13.231Z,94.78
2022-12-20T13:38:44.925Z,106.90
2022-12-20T13:41:35.180Z,96.93
2022-12-20T13:44:23.801Z,97.18
2022-12-20T13:47:14.557Z,97.80
2022-12-20T13:49:43.781Z,90.97
2022-12-20T13:52:11.221Z,94.38
2022-12-20T13:54:52.366Z,96.07
2022-12-20T13:57:32.062Z,96.15
2022-12-20T14:00:07.087Z,93.60
2022-12-20T14:02:41.536Z,98.20
2022-12-20T14:05:33.316Z,98.57
2022-12-20T14:08:06.088Z,97.63
2022-12-20T14:10:35.277Z,99.13
2022-12-20T14:13:03.267Z,99.38
2022-12-20T14:15:33.243Z,97.50
2022-12-20T14:18:18.587Z,104.82
2022-12-20T14:20:50.853Z,107.90
2022-12-20T14:23:32.494Z,95.90
2022-12-20T14:26:02.255Z,95.28
2022-12-20T14:28:37.766Z,109.40
2022-12-20T14:31:07.876Z,109.35
2022-12-20T14:33:40.388Z,111.57
2022-12-20T14:36:16.772Z,119.30
2022-12-20T14:38:50.082Z,105.72
2022-12-20T14:41:44.088Z,111.78
2022-12-20T14:44:20.728Z,103.55
2022-12-20T14:46:54.139Z,104.40
2022-12-20T14:49:22.404Z,94.30
2022-12-20T14:51:51.548Z,106.97
2022-12-20T14:55:05.789Z,112.03
2022-12-20T14:57:26.316Z,109.70
2022-12-20T15:00:12.270Z,111.10
2022-12-20T15:02:41.388Z,110.00
2022-12-20T15:05:35.692Z,122.20
2022-12-20T15:08:39.070Z,112.43
2022-12-20T15:11:09.008Z,114.75
2022-12-20T15:13:42.635Z,109.85
2022-12-20T15:16:21.387Z,117.68
2022-12-20T15:18:54.031Z,109.13
2022-12-20T15:21:41.004Z,107.10
2022-12-20T15:24:17.080Z,123.07
2022-12-20T15:26:44.777Z,103.20
2022-12-20T15:29:21.469Z,110.57
2022-12-20T15:31:50.040Z,102.15
2022-12-20T15:34:28.963Z,108.70
2022-12-20T15:36:59.941Z,105.20
2022-12-20T15:39:28.048Z,107.68
2022-12-20T15:41:58.119Z,109.13
2022-12-20T15:44:30.591Z,107.05
2022-12-20T15:47:00.841Z,107.18
2022-12-20T15:49:32.645Z,105.30
2022-12-20T15:52:00.139Z,105.05
2022-12-20T15:54:32.889Z,108.55
2022-12-20T15:57:03.450Z,106.63
2022-12-20T16:02:27.112Z,96.30
2022-12-20T16:04:55.569Z,113.78
2022-12-20T16:07:23.589Z,111.32
2022-12-20T16:09:51.223Z,100.20
2022-12-20T16:12:26.918Z,108.53
2022-12-20T16:14:55.251Z,106.20
2022-12-20T16:17:22.813Z,107.85
2022-12-20T16:19:50.729Z,97.30
2022-12-20T16:22:22.355Z,113.00
2022-12-20T16:24:50.055Z,105.30
2022-12-20T16:27:17.730Z,121.13
2022-12-20T16:29:45.466Z,101.30
2022-12-20T16:32:22.240Z,103.60
2022-12-20T16:34:51.098Z,107.40
2022-12-20T16:37:18.451Z,110.07
2022-12-20T16:39:48.708Z,164.73
2022-12-20T16:42:19.403Z,112.22
2022-12-20T16:44:51.355Z,116.35
2022-12-20T16:49:52.211Z,106.88
2022-12-20T16:52:22.304Z,116.22
2022-12-20T16:54:50.594Z,106.88
2022-12-20T16:57:18.131Z,117.28
2022-12-20T16:59:45.611Z,113.10
2022-12-20T17:02:25.627Z,103.07
2022-12-20T17:04:53.141Z,112.20
2022-12-20T17:07:21.230Z,95.05
2022-12-20T17:12:33.327Z,100.28
2022-12-20T17:15:00.685Z,95.78
2022-12-20T17:17:28.035Z,84.30
2022-12-20T17:19:55.485Z,80.63
2022-12-20T17:22:23.042Z,75.07
2022-12-20T17:24:50.520Z,74.53
2022-12-20T17:27:17.823Z,79.15
2022-12-20T17:29:45.183Z,71.97
2022-12-20T17:32:23.150Z,73.38
2022-12-20T17:34:51.253Z,89.53
2022-12-20T17:37:18.803Z,83.30
2022-12-20T17:39:49.463Z,70.65
2022-12-20T17:42:17.209Z,66.30
2022-12-20T17:44:46.251Z,81.95
2022-12-20T17:47:14.060Z,80.38
2022-12-20T17:49:41.414Z,75.80
2022-12-20T17:52:14.336Z,76.47
2022-12-20T17:54:41.755Z,74.65
2022-12-20T17:57:16.663Z,85.95
2022-12-20T17:59:44.415Z,70.13
2022-12-20T18:02:22.086Z,84.45
2022-12-20T18:04:50.127Z,84.85
2022-12-20T18:07:17.589Z,81.22
2022-12-20T18:09:47.695Z,81.45
2022-12-20T18:12:15.387Z,84.82
2022-12-20T18:14:42.750Z,85.75
2022-12-20T18:17:10.245Z,92.43
2022-12-20T18:19:37.715Z,91.85
2022-12-20T18:22:06.520Z,89.00
2022-12-20T18:24:33.927Z,82.30
2022-12-20T18:27:01.327Z,88.97
2022-12-20T18:29:29.674Z,82.47
2022-12-20T18:31:57.461Z,87.53
2022-12-20T18:34:25.045Z,95.18
2022-12-20T18:36:52.433Z,90.53
2022-12-20T18:39:20.014Z,96.40
2022-12-20T18:41:48.418Z,96.15
2022-12-20T18:44:15.795Z,116.20
2022-12-20T18:46:43.172Z,117.45
2022-12-20T18:49:10.494Z,121.07
2022-12-20T18:51:37.968Z,131.88
2022-12-20T18:54:08.108Z,124.43
2022-12-20T18:56:38.245Z,133.30
2022-12-20T18:59:12.064Z,133.27
2022-12-20T19:01:41.766Z,130.98
2022-12-20T19:04:10.785Z,125.55
2022-12-20T19:06:38.797Z,135.98
2022-12-20T19:09:10.146Z,132.95
2022-12-20T19:11:38.147Z,140.90
2022-12-20T19:14:06.371Z,138.00
2022-12-20T19:16:34.417Z,138.15
2022-12-20T19:19:03.554Z,136.40
2022-12-20T19:21:33.805Z,126.32
2022-12-20T19:24:05.181Z,140.40
2022-12-20T19:26:33.564Z,137.85
2022-12-20T19:29:00.991Z,146.50
2022-12-20T19:31:31.264Z,128.10
2022-12-20T19:34:02.030Z,133.75
2022-12-20T19:36:32.283Z,133.07
2022-12-20T19:39:01.794Z,141.40
2022-12-20T19:41:32.061Z,127.55
2022-12-20T19:43:59.896Z,124.88
2022-12-20T19:46:29.775Z,135.70
2022-12-20T19:48:59.415Z,123.18
2022-12-20T19:51:31.029Z,126.25
2022-12-20T19:53:59.146Z,121.43
2022-12-20T19:56:30.201Z,125.72
2022-12-20T19:58:57.631Z,120.67
2022-12-20T20:01:27.180Z,119.95
2022-12-20T20:03:57.093Z,124.20
2022-12-20T20:06:25.878Z,121.25
2022-12-20T20:08:53.563Z,114.05
2022-12-20T20:11:21.168Z,118.97
2022-12-20T20:13:48.639Z,110.72
2022-12-20T20:16:21.910Z,115.10
2022-12-20T20:18:50.344Z,111.22
2022-12-20T20:21:21.918Z,105.57
2022-12-20T20:23:51.102Z,119.82
2022-12-20T20:26:21.996Z,111.30
2022-12-20T20:28:49.494Z,109.30
2022-12-20T20:31:17.874Z,118.32
2022-12-20T20:33:45.774Z,114.35
2022-12-20T20:36:15.475Z,124.65
2022-12-20T20:38:42.919Z,119.72
2022-12-20T20:41:10.687Z,118.53
2022-12-20T20:43:38.465Z,123.45
2022-12-20T20:46:08.640Z,112.10
2022-12-20T20:48:36.214Z,109.75
2022-12-20T20:51:04.281Z,106.93
2022-12-20T20:53:34.154Z,123.43
2022-12-20T20:56:06.264Z,110.97
2022-12-20T20:58:34.882Z,110.97
2022-12-20T21:01:07.015Z,129.25
2022-12-20T21:03:34.573Z,112.40
2022-12-20T21:08:49.865Z,123.13
2022-12-20T21:11:17.493Z,127.10
2022-12-20T21:13:45.263Z,107.70
2022-12-20T21:16:16.227Z,122.45
2022-12-20T21:18:43.712Z,118.45
2022-12-20T21:21:13.520Z,112.90
2022-12-20T21:23:46.194Z,120.70
2022-12-20T21:26:15.121Z,116.75
2022-12-20T21:28:43.888Z,122.85
2022-12-20T21:31:17.004Z,122.45
2022-12-20T21:33:46.131Z,118.05
2022-12-20T21:36:16.421Z,134.65
2022-12-20T21:38:51.267Z,124.57
2022-12-20T21:41:23.176Z,130.73
2022-12-20T21:43:51.438Z,120.10
2022-12-20T21:46:18.870Z,113.40
2022-12-20T21:48:46.991Z,129.02
2022-12-20T21:51:20.177Z,121.13
2022-12-20T21:53:52.591Z,118.18
2022-12-20T21:56:21.635Z,115.82
2022-12-20T22:01:21.969Z,122.30
2022-12-20T22:04:01.591Z,122.50
2022-12-20T22:06:29.892Z,123.72
2022-12-20T22:08:58.669Z,123.22
2022-12-20T22:11:26.116Z,122.80
2022-12-20T22:13:55.719Z,123.82
2022-12-20T22:16:26.460Z,121.82
2022-12-20T22:18:55.809Z,126.18
2022-12-20T22:21:26.473Z,117.50
2022-12-20T22:23:58.522Z,113.03
2022-12-20T22:26:29.386Z,112.45
2022-12-20T22:29:00.025Z,120.70
2022-12-20T22:31:27.763Z,117.68
2022-12-20T22:33:56.623Z,119.55
2022-12-20T22:36:24.757Z,120.28
2022-12-20T22:38:54.130Z,122.18
2022-12-20T22:41:28.596Z,114.43
2022-12-20T22:43:58.405Z,112.68
2022-12-20T22:46:29.232Z,113.85
2022-12-20T22:48:57.869Z,113.80
2022-12-20T22:51:27.207Z,115.47
2022-12-20T22:54:00.126Z,112.53
2022-12-20T22:56:27.823Z,104.72
2022-12-20T22:58:56.005Z,107.78
2022-12-20T23:01:23.511Z,110.53
2022-12-20T23:03:53.877Z,108.78
2022-12-20T23:06:21.798Z,111.47
2022-12-20T23:08:49.392Z,109.57
2022-12-20T23:11:43.369Z,103.85
2022-12-20T23:14:31.435Z,110.30
2022-12-20T23:16:59.495Z,112.97
2022-12-20T23:19:29.440Z,110.15
2022-12-20T23:22:15.330Z,103.88
2022-12-20T23:24:42.644Z,100.38
2022-12-20T23:27:09.904Z,110.25
2022-12-20T23:29:37.259Z,93.82
2022-12-20T23:32:04.638Z,99.28
2022-12-20T23:34:31.990Z,107.35
2022-12-20T23:36:59.491Z,109.63
2022-12-20T23:39:26.744Z,98.60
2022-12-20T23:41:54.069Z,106.30
2022-12-20T23:44:21.482Z,112.55
2022-12-20T23:46:48.894Z,103.75
2022-12-20T23:49:16.189Z,115.68
2022-12-20T23:51:45.557Z,112.43
2022-12-20T23:54:12.965Z,100.78
2022-12-20T23:56:40.369Z,123.35
2022-12-20T23:59:08.166Z,101.75
